Columbia, Missouri
Current Conditions -  °F | °C
As of 6:54 PM on Wednesday 22 Oct 2014 (Local Time) from KCOU Reporting Station
Clear Clear  
Wind Chill: 58°   Ceiling: Unl
Heat Index: 58°   Visibility: 10mi
Dew Point: 42°   Wind: 6mph
Humidity: 56%   Direction: 110°ESE
Pressure: 30.18"   Gusts: NA
Location:  38.95°N, 92.33°W
Report Text: KCOU 222354Z 11005KT 10SM CLR 14/06 A3018 RMK AO2 SLP220 T01440056 10189 20144 55004
Loading
Personal Weather Stations






























Interactive Weather Map New forecast layout! Learn more

10-Day Weather Forecast

Advertisements
Track Severe Weather on mobile